sensor_id;sensor_type;location;lat;lon;timestamp;noise_LAeq;noise_LA_min;noise_LA_max;noise_LA01;noise_LA95
73663;Laerm;61956;52.540;13.382;2023-06-22T00:01:28;64.24;60.49;66.75;;
73663;Laerm;61956;52.540;13.382;2023-06-22T00:03:57;64.40;59.91;67.13;;
73663;Laerm;61956;52.540;13.382;2023-06-22T00:06:26;64.44;60.38;66.76;;
73663;Laerm;61956;52.540;13.382;2023-06-22T00:08:55;64.43;60.83;66.95;;
73663;Laerm;61956;52.540;13.382;2023-06-22T00:11:24;64.45;60.79;66.74;;
73663;Laerm;61956;52.540;13.382;2023-06-22T00:13:56;64.47;60.44;66.81;;
73663;Laerm;61956;52.540;13.382;2023-06-22T00:16:25;64.46;60.48;66.73;;
73663;Laerm;61956;52.540;13.382;2023-06-22T00:18:55;64.51;60.13;66.96;;
73663;Laerm;61956;52.540;13.382;2023-06-22T00:21:26;64.51;60.29;67.00;;
73663;Laerm;61956;52.540;13.382;2023-06-22T00:23:55;64.49;61.33;66.76;;
73663;Laerm;61956;52.540;13.382;2023-06-22T00:26:25;64.49;61.04;67.00;;
73663;Laerm;61956;52.540;13.382;2023-06-22T00:28:56;64.53;60.41;67.16;;
73663;Laerm;61956;52.540;13.382;2023-06-22T00:31:25;64.42;59.63;66.74;;
73663;Laerm;61956;52.540;13.382;2023-06-22T00:33:55;64.43;60.78;66.91;;
73663;Laerm;61956;52.540;13.382;2023-06-22T00:36:24;64.52;59.86;66.96;;
73663;Laerm;61956;52.540;13.382;2023-06-22T00:38:53;64.53;60.37;67.21;;
73663;Laerm;61956;52.540;13.382;2023-06-22T00:41:23;64.51;60.41;67.12;;
73663;Laerm;61956;52.540;13.382;2023-06-22T00:43:57;64.51;60.71;66.98;;
73663;Laerm;61956;52.540;13.382;2023-06-22T00:46:26;64.58;60.59;66.79;;
73663;Laerm;61956;52.540;13.382;2023-06-22T00:48:55;64.58;60.66;67.42;;
73663;Laerm;61956;52.540;13.382;2023-06-22T00:51:24;64.50;60.79;66.82;;
73663;Laerm;61956;52.540;13.382;2023-06-22T00:53:54;64.56;60.55;66.99;;
73663;Laerm;61956;52.540;13.382;2023-06-22T00:56:24;64.56;60.13;66.82;;
73663;Laerm;61956;52.540;13.382;2023-06-22T00:58:59;64.57;60.42;66.99;;
73663;Laerm;61956;52.540;13.382;2023-06-22T01:01:29;64.48;60.12;66.86;;
73663;Laerm;61956;52.540;13.382;2023-06-22T01:04:00;64.40;60.69;66.78;;
73663;Laerm;61956;52.540;13.382;2023-06-22T01:06:38;64.62;60.22;67.10;;
73663;Laerm;61956;52.540;13.382;2023-06-22T01:09:21;64.54;59.05;67.22;;
73663;Laerm;61956;52.540;13.382;2023-06-22T01:11:56;64.59;59.41;66.79;;
73663;Laerm;61956;52.540;13.382;2023-06-22T01:14:39;64.50;60.78;67.03;;
73663;Laerm;61956;52.540;13.382;2023-06-22T01:17:12;64.47;60.87;66.94;;
73663;Laerm;61956;52.540;13.382;2023-06-22T01:19:48;64.62;60.40;67.16;;
73663;Laerm;61956;52.540;13.382;2023-06-22T01:22:24;64.66;60.30;66.90;;
73663;Laerm;61956;52.540;13.382;2023-06-22T01:25:09;64.54;59.79;66.97;;
73663;Laerm;61956;52.540;13.382;2023-06-22T01:27:52;64.58;61.03;67.10;;
73663;Laerm;61956;52.540;13.382;2023-06-22T01:30:31;64.58;59.98;67.12;;
73663;Laerm;61956;52.540;13.382;2023-06-22T01:33:05;64.50;60.41;67.08;;
73663;Laerm;61956;52.540;13.382;2023-06-22T01:35:35;64.46;60.51;66.82;;
73663;Laerm;61956;52.540;13.382;2023-06-22T01:38:06;64.63;60.78;66.83;;
73663;Laerm;61956;52.540;13.382;2023-06-22T01:40:37;64.62;60.61;66.88;;
73663;Laerm;61956;52.540;13.382;2023-06-22T01:43:07;64.63;60.54;67.09;;
73663;Laerm;61956;52.540;13.382;2023-06-22T01:45:39;64.56;61.15;67.12;;
73663;Laerm;61956;52.540;13.382;2023-06-22T01:48:09;64.61;60.08;67.08;;
73663;Laerm;61956;52.540;13.382;2023-06-22T01:50:38;64.59;60.32;67.00;;
73663;Laerm;61956;52.540;13.382;2023-06-22T01:53:08;64.64;60.42;66.96;;
73663;Laerm;61956;52.540;13.382;2023-06-22T01:55:37;64.65;60.09;67.23;;
73663;Laerm;61956;52.540;13.382;2023-06-22T01:58:07;64.67;60.25;67.41;;
73663;Laerm;61956;52.540;13.382;2023-06-22T02:00:42;64.64;60.59;66.98;;
73663;Laerm;61956;52.540;13.382;2023-06-22T02:03:17;64.59;59.98;67.02;;
73663;Laerm;61956;52.540;13.382;2023-06-22T02:05:51;64.58;60.16;67.11;;
73663;Laerm;61956;52.540;13.382;2023-06-22T02:08:28;64.45;60.69;67.11;;
73663;Laerm;61956;52.540;13.382;2023-06-22T02:11:00;64.61;60.45;66.95;;
73663;Laerm;61956;52.540;13.382;2023-06-22T02:13:32;64.64;60.72;67.06;;
73663;Laerm;61956;52.540;13.382;2023-06-22T02:16:04;64.64;60.70;71.09;;
73663;Laerm;61956;52.540;13.382;2023-06-22T02:18:34;64.65;59.92;66.93;;
73663;Laerm;61956;52.540;13.382;2023-06-22T02:21:03;64.68;60.16;67.02;;
73663;Laerm;61956;52.540;13.382;2023-06-22T02:23:32;64.61;60.01;66.76;;
73663;Laerm;61956;52.540;13.382;2023-06-22T02:26:03;64.53;60.78;67.21;;
73663;Laerm;61956;52.540;13.382;2023-06-22T02:28:32;64.68;60.90;67.13;;
73663;Laerm;61956;52.540;13.382;2023-06-22T02:33:33;60.95;57.30;64.16;;
73663;Laerm;61956;52.540;13.382;2023-06-22T02:36:02;61.04;57.52;64.55;;
73663;Laerm;61956;52.540;13.382;2023-06-22T02:38:35;61.07;57.35;64.62;;
73663;Laerm;61956;52.540;13.382;2023-06-22T02:41:05;61.17;57.57;64.85;;
73663;Laerm;61956;52.540;13.382;2023-06-22T02:43:39;61.17;57.61;65.45;;
73663;Laerm;61956;52.540;13.382;2023-06-22T02:46:11;61.16;57.26;65.25;;
73663;Laerm;61956;52.540;13.382;2023-06-22T02:48:41;61.21;57.31;65.04;;
73663;Laerm;61956;52.540;13.382;2023-06-22T02:51:11;61.22;57.43;65.11;;
73663;Laerm;61956;52.540;13.382;2023-06-22T02:53:41;61.19;57.53;64.87;;
73663;Laerm;61956;52.540;13.382;2023-06-22T02:56:13;61.22;57.55;65.16;;
73663;Laerm;61956;52.540;13.382;2023-06-22T02:58:44;61.17;57.36;64.87;;
73663;Laerm;61956;52.540;13.382;2023-06-22T03:01:16;61.24;57.47;64.90;;
73663;Laerm;61956;52.540;13.382;2023-06-22T03:03:50;61.31;57.39;65.01;;
73663;Laerm;61956;52.540;13.382;2023-06-22T03:06:20;61.54;57.53;68.24;;
73663;Laerm;61956;52.540;13.382;2023-06-22T03:08:59;61.25;57.61;64.96;;
73663;Laerm;61956;52.540;13.382;2023-06-22T03:11:31;61.22;57.51;64.72;;
73663;Laerm;61956;52.540;13.382;2023-06-22T03:14:01;61.24;57.69;65.38;;
73663;Laerm;61956;52.540;13.382;2023-06-22T03:16:33;61.29;57.46;65.02;;
73663;Laerm;61956;52.540;13.382;2023-06-22T03:19:03;61.29;57.56;65.16;;
73663;Laerm;61956;52.540;13.382;2023-06-22T03:21:32;61.27;57.63;65.16;;
73663;Laerm;61956;52.540;13.382;2023-06-22T03:24:01;61.28;57.48;66.03;;
73663;Laerm;61956;52.540;13.382;2023-06-22T03:26:30;61.28;57.57;65.12;;
73663;Laerm;61956;52.540;13.382;2023-06-22T03:29:00;61.30;57.47;65.05;;
73663;Laerm;61956;52.540;13.382;2023-06-22T03:31:33;61.35;57.74;65.33;;
73663;Laerm;61956;52.540;13.382;2023-06-22T03:34:03;61.36;57.61;65.20;;
73663;Laerm;61956;52.540;13.382;2023-06-22T03:36:32;61.34;57.41;65.21;;
73663;Laerm;61956;52.540;13.382;2023-06-22T03:39:02;61.33;57.42;65.35;;
73663;Laerm;61956;52.540;13.382;2023-06-22T03:41:31;61.31;57.72;64.91;;
73663;Laerm;61956;52.540;13.382;2023-06-22T03:44:00;61.40;57.38;65.34;;
73663;Laerm;61956;52.540;13.382;2023-06-22T03:46:30;61.42;57.79;65.11;;
73663;Laerm;61956;52.540;13.382;2023-06-22T03:49:01;61.44;57.66;65.05;;
73663;Laerm;61956;52.540;13.382;2023-06-22T03:51:32;61.42;57.81;67.92;;
73663;Laerm;61956;52.540;13.382;2023-06-22T03:54:01;61.36;57.70;65.37;;
73663;Laerm;61956;52.540;13.382;2023-06-22T03:56:31;61.53;57.63;65.37;;
73663;Laerm;61956;52.540;13.382;2023-06-22T03:59:00;61.40;57.68;65.67;;
73663;Laerm;61956;52.540;13.382;2023-06-22T04:01:29;61.40;57.61;65.76;;
73663;Laerm;61956;52.540;13.382;2023-06-22T04:04:01;61.44;57.64;65.10;;
73663;Laerm;61956;52.540;13.382;2023-06-22T04:06:30;61.34;57.56;65.33;;
73663;Laerm;61956;52.540;13.382;2023-06-22T04:09:00;61.47;57.81;66.96;;
73663;Laerm;61956;52.540;13.382;2023-06-22T04:11:29;61.42;57.65;64.94;;
73663;Laerm;61956;52.540;13.382;2023-06-22T04:13:59;61.44;57.84;65.61;;
73663;Laerm;61956;52.540;13.382;2023-06-22T04:16:28;61.47;57.63;65.11;;
73663;Laerm;61956;52.540;13.382;2023-06-22T04:18:57;61.46;57.80;65.01;;
73663;Laerm;61956;52.540;13.382;2023-06-22T04:21:29;61.47;57.37;65.72;;
73663;Laerm;61956;52.540;13.382;2023-06-22T04:23:58;61.43;57.83;65.32;;
73663;Laerm;61956;52.540;13.382;2023-06-22T04:26:27;61.44;57.40;64.98;;
73663;Laerm;61956;52.540;13.382;2023-06-22T04:28:56;61.38;57.35;65.21;;
73663;Laerm;61956;52.540;13.382;2023-06-22T04:31:26;61.37;57.82;65.44;;
73663;Laerm;61956;52.540;13.382;2023-06-22T04:33:57;61.48;57.83;66.05;;
73663;Laerm;61956;52.540;13.382;2023-06-22T04:36:37;61.53;57.79;65.43;;
73663;Laerm;61956;52.540;13.382;2023-06-22T04:39:09;61.45;57.74;65.80;;
73663;Laerm;61956;52.540;13.382;2023-06-22T04:41:40;61.47;57.82;64.94;;
73663;Laerm;61956;52.540;13.382;2023-06-22T04:44:12;61.44;57.74;65.67;;
73663;Laerm;61956;52.540;13.382;2023-06-22T04:46:51;61.46;57.67;65.40;;
73663;Laerm;61956;52.540;13.382;2023-06-22T04:49:27;61.64;57.62;67.55;;
73663;Laerm;61956;52.540;13.382;2023-06-22T04:52:03;61.47;57.58;65.29;;
73663;Laerm;61956;52.540;13.382;2023-06-22T04:54:33;61.62;57.85;65.28;;
73663;Laerm;61956;52.540;13.382;2023-06-22T04:57:05;61.43;57.85;65.77;;
73663;Laerm;61956;52.540;13.382;2023-06-22T04:59:37;61.45;57.65;65.41;;
73663;Laerm;61956;52.540;13.382;2023-06-22T05:02:08;61.47;57.74;65.71;;
73663;Laerm;61956;52.540;13.382;2023-06-22T05:04:37;61.50;57.82;64.96;;
73663;Laerm;61956;52.540;13.382;2023-06-22T05:07:09;61.57;57.88;65.60;;
73663;Laerm;61956;52.540;13.382;2023-06-22T05:09:39;61.73;57.87;69.04;;
73663;Laerm;61956;52.540;13.382;2023-06-22T05:12:09;61.54;57.70;65.73;;
73663;Laerm;61956;52.540;13.382;2023-06-22T05:14:38;61.56;57.88;65.69;;
73663;Laerm;61956;52.540;13.382;2023-06-22T05:17:07;61.62;57.83;65.32;;
73663;Laerm;61956;52.540;13.382;2023-06-22T05:19:39;61.99;57.61;74.87;;
73663;Laerm;61956;52.540;13.382;2023-06-22T05:22:17;61.76;57.67;66.23;;
73663;Laerm;61956;52.540;13.382;2023-06-22T05:24:47;61.73;57.96;65.56;;
73663;Laerm;61956;52.540;13.382;2023-06-22T05:27:16;61.74;57.87;65.45;;
73663;Laerm;61956;52.540;13.382;2023-06-22T05:29:45;61.74;58.07;65.66;;
73663;Laerm;61956;52.540;13.382;2023-06-22T05:32:14;61.78;57.86;65.89;;
73663;Laerm;61956;52.540;13.382;2023-06-22T05:34:44;61.89;58.10;65.93;;
73663;Laerm;61956;52.540;13.382;2023-06-22T05:37:16;62.05;58.12;65.46;;
73663;Laerm;61956;52.540;13.382;2023-06-22T05:39:45;62.05;57.96;65.79;;
73663;Laerm;61956;52.540;13.382;2023-06-22T05:42:14;61.99;58.28;65.58;;
73663;Laerm;61956;52.540;13.382;2023-06-22T05:44:43;61.93;57.99;65.43;;
73663;Laerm;61956;52.540;13.382;2023-06-22T05:47:13;62.01;58.01;65.55;;
73663;Laerm;61956;52.540;13.382;2023-06-22T05:49:42;62.00;58.13;66.30;;
73663;Laerm;61956;52.540;13.382;2023-06-22T05:52:11;62.00;58.01;65.75;;
73663;Laerm;61956;52.540;13.382;2023-06-22T05:54:43;62.19;57.97;65.29;;
73663;Laerm;61956;52.540;13.382;2023-06-22T05:57:12;62.16;58.15;65.91;;
73663;Laerm;61956;52.540;13.382;2023-06-22T05:59:41;62.38;58.34;74.58;;
73663;Laerm;61956;52.540;13.382;2023-06-22T06:02:10;62.28;58.16;65.61;;
73663;Laerm;61956;52.540;13.382;2023-06-22T06:04:40;62.36;58.47;65.86;;
73663;Laerm;61956;52.540;13.382;2023-06-22T06:07:09;62.47;58.27;67.92;;
73663;Laerm;61956;52.540;13.382;2023-06-22T06:09:38;62.11;58.33;65.91;;
73663;Laerm;61956;52.540;13.382;2023-06-22T06:12:10;62.31;58.30;65.98;;
73663;Laerm;61956;52.540;13.382;2023-06-22T06:14:39;62.43;58.37;65.80;;
73663;Laerm;61956;52.540;13.382;2023-06-22T06:17:08;63.09;59.23;66.98;;
73663;Laerm;61956;52.540;13.382;2023-06-22T06:19:37;63.27;58.25;74.14;;
73663;Laerm;61956;52.540;13.382;2023-06-22T06:22:07;63.41;58.22;76.82;;
73663;Laerm;61956;52.540;13.382;2023-06-22T06:24:36;63.52;58.55;76.49;;
73663;Laerm;61956;52.540;13.382;2023-06-22T06:27:05;62.39;58.05;73.52;;
73663;Laerm;61956;52.540;13.382;2023-06-22T06:29:37;62.92;58.29;77.73;;
73663;Laerm;61956;52.540;13.382;2023-06-22T06:32:08;62.67;58.61;68.21;;
73663;Laerm;61956;52.540;13.382;2023-06-22T06:34:37;62.50;58.71;65.79;;
73663;Laerm;61956;52.540;13.382;2023-06-22T06:37:07;62.49;58.42;66.24;;
73663;Laerm;61956;52.540;13.382;2023-06-22T06:39:36;62.55;58.68;66.26;;
73663;Laerm;61956;52.540;13.382;2023-06-22T06:42:06;62.43;58.46;66.12;;
73663;Laerm;61956;52.540;13.382;2023-06-22T06:44:39;62.54;58.26;65.52;;
73663;Laerm;61956;52.540;13.382;2023-06-22T06:47:09;62.67;58.96;65.91;;
73663;Laerm;61956;52.540;13.382;2023-06-22T06:49:38;62.52;58.67;66.05;;
73663;Laerm;61956;52.540;13.382;2023-06-22T06:52:07;62.48;58.70;65.39;;
73663;Laerm;61956;52.540;13.382;2023-06-22T06:54:37;62.48;58.69;65.57;;
73663;Laerm;61956;52.540;13.382;2023-06-22T06:57:08;62.51;58.44;65.66;;
73663;Laerm;61956;52.540;13.382;2023-06-22T06:59:42;62.56;58.55;67.15;;
73663;Laerm;61956;52.540;13.382;2023-06-22T07:04:40;63.21;59.95;67.53;;
73663;Laerm;61956;52.540;13.382;2023-06-22T07:07:13;62.76;59.40;65.74;;
73663;Laerm;61956;52.540;13.382;2023-06-22T07:09:43;62.85;59.27;81.62;;
73663;Laerm;61956;52.540;13.382;2023-06-22T07:12:12;62.67;59.11;65.48;;
73663;Laerm;61956;52.540;13.382;2023-06-22T07:14:44;62.70;59.24;65.37;;
73663;Laerm;61956;52.540;13.382;2023-06-22T07:17:13;62.70;59.64;65.31;;
73663;Laerm;61956;52.540;13.382;2023-06-22T07:19:42;62.69;59.27;65.23;;
73663;Laerm;61956;52.540;13.382;2023-06-22T07:22:12;62.71;58.99;65.30;;
73663;Laerm;61956;52.540;13.382;2023-06-22T07:24:41;62.67;59.29;65.21;;
73663;Laerm;61956;52.540;13.382;2023-06-22T07:27:10;62.69;59.09;65.50;;
73663;Laerm;61956;52.540;13.382;2023-06-22T07:29:45;62.66;59.24;65.96;;
73663;Laerm;61956;52.540;13.382;2023-06-22T07:32:14;62.77;59.59;71.11;;
73663;Laerm;61956;52.540;13.382;2023-06-22T07:34:43;62.96;59.00;68.33;;
73663;Laerm;61956;52.540;13.382;2023-06-22T07:37:13;62.80;59.38;70.84;;
73663;Laerm;61956;52.540;13.382;2023-06-22T07:39:46;62.65;58.94;65.43;;
73663;Laerm;61956;52.540;13.382;2023-06-22T07:42:16;62.62;59.07;65.96;;
73663;Laerm;61956;52.540;13.382;2023-06-22T07:44:49;62.88;59.00;67.79;;
73663;Laerm;61956;52.540;13.382;2023-06-22T07:47:19;62.87;58.95;74.41;;
73663;Laerm;61956;52.540;13.382;2023-06-22T07:49:51;62.76;59.25;68.69;;
73663;Laerm;61956;52.540;13.382;2023-06-22T07:52:21;62.67;58.99;66.04;;
73663;Laerm;61956;52.540;13.382;2023-06-22T07:54:50;62.63;59.07;68.77;;
73663;Laerm;61956;52.540;13.382;2023-06-22T07:57:19;62.64;59.01;68.05;;
73663;Laerm;61956;52.540;13.382;2023-06-22T07:59:51;62.82;59.08;72.47;;
73663;Laerm;61956;52.540;13.382;2023-06-22T08:02:22;63.21;59.71;69.91;;
73663;Laerm;61956;52.540;13.382;2023-06-22T08:04:52;62.79;59.36;67.17;;
73663;Laerm;61956;52.540;13.382;2023-06-22T08:07:21;62.73;59.09;66.42;;
73663;Laerm;61956;52.540;13.382;2023-06-22T08:09:50;62.83;59.52;66.86;;
73663;Laerm;61956;52.540;13.382;2023-06-22T08:12:19;62.76;59.61;65.97;;
73663;Laerm;61956;52.540;13.382;2023-06-22T08:14:51;62.65;59.50;65.69;;
73663;Laerm;61956;52.540;13.382;2023-06-22T08:17:20;62.66;59.30;65.45;;
73663;Laerm;61956;52.540;13.382;2023-06-22T08:19:49;62.88;58.94;75.18;;
73663;Laerm;61956;52.540;13.382;2023-06-22T08:22:18;62.80;59.46;65.69;;
73663;Laerm;61956;52.540;13.382;2023-06-22T08:24:51;62.81;59.63;65.82;;
73663;Laerm;61956;52.540;13.382;2023-06-22T08:27:20;62.82;58.91;66.45;;
73663;Laerm;61956;52.540;13.382;2023-06-22T08:29:52;63.00;59.32;69.89;;
73663;Laerm;61956;52.540;13.382;2023-06-22T08:32:24;63.26;59.29;68.73;;
73663;Laerm;61956;52.540;13.382;2023-06-22T08:34:53;62.84;59.55;65.81;;
73663;Laerm;61956;52.540;13.382;2023-06-22T08:37:23;62.80;59.11;65.62;;
73663;Laerm;61956;52.540;13.382;2023-06-22T08:39:56;62.80;59.11;65.62;;
73663;Laerm;61956;52.540;13.382;2023-06-22T08:42:25;63.47;59.85;71.16;;
73663;Laerm;61956;52.540;13.382;2023-06-22T08:44:57;62.79;59.61;66.06;;
73663;Laerm;61956;52.540;13.382;2023-06-22T08:47:27;62.81;59.65;68.69;;
73663;Laerm;61956;52.540;13.382;2023-06-22T08:49:57;63.73;59.76;73.46;;
73663;Laerm;61956;52.540;13.382;2023-06-22T08:52:28;63.09;59.57;68.67;;
73663;Laerm;61956;52.540;13.382;2023-06-22T08:54:57;63.04;59.45;66.35;;
73663;Laerm;61956;52.540;13.382;2023-06-22T08:57:27;62.79;59.05;65.30;;
73663;Laerm;61956;52.540;13.382;2023-06-22T09:00:03;63.59;59.03;69.40;;
73663;Laerm;61956;52.540;13.382;2023-06-22T09:02:37;62.94;59.63;68.69;;
73663;Laerm;61956;52.540;13.382;2023-06-22T09:05:07;64.13;59.31;72.58;;
73663;Laerm;61956;52.540;13.382;2023-06-22T09:07:36;62.71;59.60;65.88;;
73663;Laerm;61956;52.540;13.382;2023-06-22T09:10:07;62.96;59.30;70.83;;
73663;Laerm;61956;52.540;13.382;2023-06-22T09:12:36;62.86;59.11;65.62;;
73663;Laerm;61956;52.540;13.382;2023-06-22T09:15:09;63.06;59.73;67.94;;
73663;Laerm;61956;52.540;13.382;2023-06-22T09:17:40;62.80;58.88;65.93;;
73663;Laerm;61956;52.540;13.382;2023-06-22T09:20:10;62.80;59.31;65.61;;
73663;Laerm;61956;52.540;13.382;2023-06-22T09:22:40;62.79;59.39;65.56;;
73663;Laerm;61956;52.540;13.382;2023-06-22T09:25:09;63.10;59.47;71.80;;
73663;Laerm;61956;52.540;13.382;2023-06-22T09:27:39;63.27;59.73;70.98;;
73663;Laerm;61956;52.540;13.382;2023-06-22T09:30:11;63.39;59.33;74.79;;
73663;Laerm;61956;52.540;13.382;2023-06-22T09:32:41;62.98;59.36;66.19;;
73663;Laerm;61956;52.540;13.382;2023-06-22T09:35:10;63.11;59.54;67.06;;
73663;Laerm;61956;52.540;13.382;2023-06-22T09:37:40;63.07;59.64;69.09;;
73663;Laerm;61956;52.540;13.382;2023-06-22T09:40:10;62.87;59.07;67.42;;
73663;Laerm;61956;52.540;13.382;2023-06-22T09:42:42;62.84;59.41;68.69;;
73663;Laerm;61956;52.540;13.382;2023-06-22T09:45:13;62.85;59.53;68.49;;
73663;Laerm;61956;52.540;13.382;2023-06-22T09:47:42;62.91;59.12;65.56;;
73663;Laerm;61956;52.540;13.382;2023-06-22T09:50:12;62.78;59.15;65.42;;
73663;Laerm;61956;52.540;13.382;2023-06-22T09:52:42;62.88;59.28;66.19;;
73663;Laerm;61956;52.540;13.382;2023-06-22T09:55:16;62.81;58.90;65.23;;
73663;Laerm;61956;52.540;13.382;2023-06-22T09:57:45;62.86;59.39;65.59;;
73663;Laerm;61956;52.540;13.382;2023-06-22T10:00:18;62.85;59.48;65.31;;
73663;Laerm;61956;52.540;13.382;2023-06-22T10:02:48;62.83;59.65;65.26;;
73663;Laerm;61956;52.540;13.382;2023-06-22T10:05:18;63.11;59.17;78.80;;
73663;Laerm;61956;52.540;13.382;2023-06-22T10:07:49;63.28;59.58;75.42;;
73663;Laerm;61956;52.540;13.382;2023-06-22T10:10:18;62.87;58.98;71.59;;
73663;Laerm;61956;52.540;13.382;2023-06-22T10:12:55;62.80;59.64;66.39;;
73663;Laerm;61956;52.540;13.382;2023-06-22T10:15:27;62.81;59.37;65.32;;
73663;Laerm;61956;52.540;13.382;2023-06-22T10:17:56;62.80;59.09;65.97;;
73663;Laerm;61956;52.540;13.382;2023-06-22T10:20:25;62.81;59.56;65.21;;
73663;Laerm;61956;52.540;13.382;2023-06-22T10:22:54;62.83;59.14;69.20;;
73663;Laerm;61956;52.540;13.382;2023-06-22T10:25:24;62.92;59.37;72.77;;
73663;Laerm;61956;52.540;13.382;2023-06-22T10:27:53;63.89;59.57;77.46;;
73663;Laerm;61956;52.540;13.382;2023-06-22T10:30:26;62.83;59.20;72.27;;
73663;Laerm;61956;52.540;13.382;2023-06-22T10:32:55;63.04;58.92;70.95;;
73663;Laerm;61956;52.540;13.382;2023-06-22T10:35:24;62.74;58.92;71.03;;
73663;Laerm;61956;52.540;13.382;2023-06-22T10:37:54;62.79;59.22;68.18;;
73663;Laerm;61956;52.540;13.382;2023-06-22T10:40:23;62.81;59.23;66.27;;
73663;Laerm;61956;52.540;13.382;2023-06-22T10:42:53;62.82;58.63;65.46;;
73663;Laerm;61956;52.540;13.382;2023-06-22T10:45:22;62.81;59.45;65.37;;
73663;Laerm;61956;52.540;13.382;2023-06-22T10:47:54;62.95;59.62;65.83;;
73663;Laerm;61956;52.540;13.382;2023-06-22T10:50:24;62.96;58.96;66.66;;
73663;Laerm;61956;52.540;13.382;2023-06-22T10:52:54;62.94;59.19;65.93;;
73663;Laerm;61956;52.540;13.382;2023-06-22T10:55:23;62.86;59.31;65.77;;
73663;Laerm;61956;52.540;13.382;2023-06-22T10:57:52;63.61;59.31;76.57;;
73663;Laerm;61956;52.540;13.382;2023-06-22T11:00:21;63.59;59.50;75.19;;
73663;Laerm;61956;52.540;13.382;2023-06-22T11:02:54;64.00;59.30;77.74;;
73663;Laerm;61956;52.540;13.382;2023-06-22T11:05:24;63.50;59.66;76.59;;
73663;Laerm;61956;52.540;13.382;2023-06-22T11:07:53;63.01;59.77;71.66;;
73663;Laerm;61956;52.540;13.382;2023-06-22T11:10:23;62.85;59.09;71.04;;
73663;Laerm;61956;52.540;13.382;2023-06-22T11:12:53;62.91;59.34;68.71;;
73663;Laerm;61956;52.540;13.382;2023-06-22T11:15:24;62.96;59.52;66.25;;
73663;Laerm;61956;52.540;13.382;2023-06-22T11:17:55;62.90;59.52;65.76;;
73663;Laerm;61956;52.540;13.382;2023-06-22T11:20:24;62.93;59.02;66.89;;
73663;Laerm;61956;52.540;13.382;2023-06-22T11:22:54;63.67;59.74;76.37;;
73663;Laerm;61956;52.540;13.382;2023-06-22T11:25:23;63.26;59.27;74.97;;
73663;Laerm;61956;52.540;13.382;2023-06-22T11:27:52;63.04;59.21;75.77;;
73663;Laerm;61956;52.540;13.382;2023-06-22T11:32:50;62.67;59.63;64.90;;
73663;Laerm;61956;52.540;13.382;2023-06-22T11:35:22;62.85;59.88;65.64;;
73663;Laerm;61956;52.540;13.382;2023-06-22T11:37:51;62.91;59.97;68.34;;
73663;Laerm;61956;52.540;13.382;2023-06-22T11:40:22;62.84;59.94;65.22;;
73663;Laerm;61956;52.540;13.382;2023-06-22T11:42:51;63.16;59.65;68.49;;
73663;Laerm;61956;52.540;13.382;2023-06-22T11:45:20;63.25;60.47;65.74;;
73663;Laerm;61956;52.540;13.382;2023-06-22T11:47:49;62.97;60.01;73.67;;
73663;Laerm;61956;52.540;13.382;2023-06-22T11:50:21;63.05;59.31;67.35;;
73663;Laerm;61956;52.540;13.382;2023-06-22T11:52:51;62.96;59.61;75.84;;
73663;Laerm;61956;52.540;13.382;2023-06-22T11:55:20;62.96;58.77;65.32;;
73663;Laerm;61956;52.540;13.382;2023-06-22T11:57:55;62.96;59.21;67.11;;
73663;Laerm;61956;52.540;13.382;2023-06-22T12:00:26;62.82;59.63;67.70;;
73663;Laerm;61956;52.540;13.382;2023-06-22T12:02:56;62.93;60.21;66.11;;
73663;Laerm;61956;52.540;13.382;2023-06-22T12:05:27;63.00;59.73;70.88;;
73663;Laerm;61956;52.540;13.382;2023-06-22T12:07:57;63.05;59.61;70.28;;
73663;Laerm;61956;52.540;13.382;2023-06-22T12:10:26;62.96;59.55;65.59;;
73663;Laerm;61956;52.540;13.382;2023-06-22T12:12:57;62.95;60.01;65.20;;
73663;Laerm;61956;52.540;13.382;2023-06-22T12:15:26;62.93;58.91;68.79;;
73663;Laerm;61956;52.540;13.382;2023-06-22T12:17:56;62.95;60.02;65.22;;
73663;Laerm;61956;52.540;13.382;2023-06-22T12:20:27;62.97;58.86;67.36;;
73663;Laerm;61956;52.540;13.382;2023-06-22T12:22:58;63.00;60.05;65.30;;
73663;Laerm;61956;52.540;13.382;2023-06-22T12:25:27;63.01;59.82;69.90;;
73663;Laerm;61956;52.540;13.382;2023-06-22T12:27:56;63.25;60.07;74.58;;
73663;Laerm;61956;52.540;13.382;2023-06-22T12:30:25;63.12;59.94;74.19;;
73663;Laerm;61956;52.540;13.382;2023-06-22T12:32:54;63.07;59.09;70.14;;
73663;Laerm;61956;52.540;13.382;2023-06-22T12:35:27;62.99;59.60;71.29;;
73663;Laerm;61956;52.540;13.382;2023-06-22T12:37:56;62.98;59.24;65.65;;
73663;Laerm;61956;52.540;13.382;2023-06-22T12:40:25;62.95;59.74;66.24;;
73663;Laerm;61956;52.540;13.382;2023-06-22T12:42:54;62.94;59.25;65.27;;
73663;Laerm;61956;52.540;13.382;2023-06-22T12:45:23;62.99;59.71;69.11;;
73663;Laerm;61956;52.540;13.382;2023-06-22T12:47:55;62.95;59.59;65.21;;
73663;Laerm;61956;52.540;13.382;2023-06-22T12:50:24;62.97;59.53;65.45;;
73663;Laerm;61956;52.540;13.382;2023-06-22T12:52:55;62.97;59.72;65.33;;
73663;Laerm;61956;52.540;13.382;2023-06-22T12:55:25;62.99;59.50;68.54;;
73663;Laerm;61956;52.540;13.382;2023-06-22T12:57:54;63.03;60.00;68.36;;
73663;Laerm;61956;52.540;13.382;2023-06-22T13:00:23;62.99;60.09;75.60;;
73663;Laerm;61956;52.540;13.382;2023-06-22T13:02:52;63.03;59.49;80.61;;
73663;Laerm;61956;52.540;13.382;2023-06-22T13:05:22;62.99;59.83;65.35;;
73663;Laerm;61956;52.540;13.382;2023-06-22T13:07:51;62.95;59.37;67.14;;
73663;Laerm;61956;52.540;13.382;2023-06-22T13:10:23;63.86;60.24;74.31;;
73663;Laerm;61956;52.540;13.382;2023-06-22T13:12:52;63.31;60.10;72.29;;
73663;Laerm;61956;52.540;13.382;2023-06-22T13:15:27;63.29;59.85;71.71;;
73663;Laerm;61956;52.540;13.382;2023-06-22T13:17:57;63.09;59.04;67.32;;
73663;Laerm;61956;52.540;13.382;2023-06-22T13:20:28;63.37;60.18;72.91;;
73663;Laerm;61956;52.540;13.382;2023-06-22T13:23:00;64.54;60.15;78.17;;
73663;Laerm;61956;52.540;13.382;2023-06-22T13:25:31;63.20;59.65;70.80;;
73663;Laerm;61956;52.540;13.382;2023-06-22T13:28:01;62.94;59.79;65.44;;
73663;Laerm;61956;52.540;13.382;2023-06-22T13:30:32;62.90;59.38;67.66;;
73663;Laerm;61956;52.540;13.382;2023-06-22T13:33:01;63.00;59.87;65.75;;
73663;Laerm;61956;52.540;13.382;2023-06-22T13:35:31;62.91;60.27;65.72;;
73663;Laerm;61956;52.540;13.382;2023-06-22T13:38:01;62.85;59.60;65.41;;
73663;Laerm;61956;52.540;13.382;2023-06-22T13:40:32;62.90;59.52;65.85;;
73663;Laerm;61956;52.540;13.382;2023-06-22T13:43:02;62.96;59.91;65.32;;
73663;Laerm;61956;52.540;13.382;2023-06-22T13:45:31;62.96;59.22;68.74;;
73663;Laerm;61956;52.540;13.382;2023-06-22T13:48:01;62.87;59.07;65.92;;
73663;Laerm;61956;52.540;13.382;2023-06-22T13:50:30;62.93;59.00;65.61;;
73663;Laerm;61956;52.540;13.382;2023-06-22T13:53:00;62.94;59.42;65.35;;
73663;Laerm;61956;52.540;13.382;2023-06-22T13:55:31;62.90;59.27;65.49;;
73663;Laerm;61956;52.540;13.382;2023-06-22T13:58:00;62.88;59.06;65.35;;